Time;durP1;ratioP1;P1;durP2;ratioP2;P2;SDS_P1;SDS_P2;PMS_P1;PMS_P2;Temp;Humidity;BMP_temperature;BMP_pressure;BME280_temperature;BME280_humidity;BME280_pressure;Samples;Min_cycle;Max_cycle;Signal;HPM_P1;HPM_P2
2022/04/01 00:02:13;;;;;;;52.97;34.15;;;;;;;;;;5075157;28;20020;-73
2022/04/01 00:04:39;;;;;;;63.60;45.50;;;;;;;;;;5075135;28;20554;-73
2022/04/01 00:07:06;;;;;;;58.00;37.33;;;;;;;;;;5075351;28;20028;-70
2022/04/01 00:09:32;;;;;;;46.15;30.90;;;;;;;;;;5075005;28;20024;-73
2022/04/01 00:11:58;;;;;;;44.08;28.90;;;;;;;;;;5075112;28;20040;-73
2022/04/01 00:14:24;;;;;;;35.53;25.48;;;;;;;;;;5075057;28;20078;-73
2022/04/01 00:16:51;;;;;;;37.83;25.50;;;;;;;;;;5074632;28;20851;-73
2022/04/01 00:19:18;;;;;;;69.50;43.25;;;;;;;;;;5074868;28;20103;-73
2022/04/01 00:21:44;;;;;;;38.22;27.35;;;;;;;;;;5074687;28;20025;-73
2022/04/01 00:24:10;;;;;;;48.67;29.42;;;;;;;;;;5074784;28;20024;-73
2022/04/01 00:26:36;;;;;;;53.15;33.80;;;;;;;;;;5074602;28;20044;-72
2022/04/01 00:29:14;;;;;;;59.25;38.78;;;461.10;1945.60;;;;;;5074563;28;20025;-72
2022/04/01 00:31:58;;;;;;;55.70;35.80;;;460.90;1971.20;;;;;;5074738;28;20044;-72
2022/04/01 00:34:24;;;;;;;50.53;33.38;;;;;;;;;;5074596;28;20013;-70
2022/04/01 00:36:50;;;;;;;49.75;32.90;;;;;;;;;;5074561;28;20032;-72
2022/04/01 00:39:18;;;;;;;46.47;32.17;;;;;;;;;;5074303;28;20028;-72
2022/04/01 00:41:44;;;;;;;52.97;35.70;;;;;;;;;;5074305;28;20099;-73
2022/04/01 00:44:18;;;;;;;53.10;36.08;;;;;;;;;;5073327;28;20535;-73
2022/04/01 00:46:46;;;;;;;56.78;36.08;;;;;;;;;;5074157;28;20020;-72
2022/04/01 00:49:12;;;;;;;49.05;33.15;;;;;;;;;;5074474;28;20035;-72
2022/04/01 00:51:41;;;;;;;46.33;31.13;;;435.60;2073.60;;;;;;5074105;28;20037;-72
2022/04/01 00:54:08;;;;;;;48.67;32.05;;;;;;;;;;5074120;28;20020;-72
2022/04/01 00:56:34;;;;;;;51.60;32.55;;;435.20;2150.40;;;;;;5073950;28;20487;-67
2022/04/01 00:59:02;;;;;;;39.65;29.25;;;;;;;;;;5073973;28;20039;-73
2022/04/01 01:01:29;;;;;;;83.22;55.10;;;;;;;;;;5073803;28;20103;-73
2022/04/01 01:03:54;;;;;;;47.28;33.83;;;435.70;2099.20;;;;;;5073868;28;20020;-72
2022/04/01 01:06:21;;;;;;;42.38;30.92;;;435.20;2201.60;;;;;;5073744;28;20109;-73
2022/04/01 01:08:48;;;;;;;34.17;23.05;;;435.20;2201.60;;;;;;5073778;28;20104;-73
2022/04/01 01:11:14;;;;;;;32.83;22.80;;;435.30;2201.60;;;;;;5073702;28;20028;-73
2022/04/01 01:13:40;;;;;;;36.15;22.10;;;;;;;;;;5073479;28;20028;-74
2022/04/01 01:16:07;;;;;;;37.25;23.83;;;;;;;;;;5073664;28;20021;-74
2022/04/01 01:18:33;;;;;;;44.70;28.73;;;435.80;2150.40;;;;;;5073685;28;20044;-73
2022/04/01 01:20:59;;;;;;;36.80;25.27;;;435.50;2176.00;;;;;;5073434;28;20028;-73
2022/04/01 01:23:32;;;;;;;30.40;21.30;;;435.30;2227.20;;;;;;5073653;28;20023;-74
2022/04/01 01:25:58;;;;;;;28.55;19.63;;;435.30;2227.20;;;;;;5073309;28;20051;-68
2022/04/01 01:28:24;;;;;;;26.17;20.88;;;435.50;2201.60;;;;;;5073580;28;20033;-74
2022/04/01 01:30:50;;;;;;;23.55;17.02;;;435.30;2227.20;;;;;;5073256;28;20028;-73
2022/04/01 01:33:20;;;;;;;22.83;15.63;;;435.30;2252.80;;;;;;5073324;28;20085;-75
2022/04/01 01:35:47;;;;;;;22.07;15.17;;;435.30;2252.80;;;;;;5073605;28;20045;-72
2022/04/01 01:38:17;;;;;;;21.83;14.10;;;410.50;2304.00;;;;;;5073696;28;20036;-74
2022/04/01 01:40:43;;;;;;;19.70;13.77;;;410.50;2304.00;;;;;;5073144;28;20024;-73
2022/04/01 01:43:09;;;;;;;20.58;13.13;;;435.20;2304.00;;;;;;5073309;28;20052;-73
2022/04/01 01:45:35;;;;;;;19.98;14.07;;;435.60;2278.40;;;;;;5073225;28;20067;-73
2022/04/01 01:48:01;;;;;;;33.95;17.58;;;435.50;2227.20;;;;;;5073129;28;20470;-73
2022/04/01 01:55:55;;;;;;;34.75;20.50;;;435.30;2304.00;;;;;;5073212;28;20032;-73
2022/04/01 01:58:21;;;;;;;26.05;17.95;;;410.50;2329.60;;;;;;5073055;28;20021;-73
2022/04/01 02:00:47;;;;;;;16.15;10.45;;;;;;;;;;5073050;28;20028;-72
2022/04/01 02:03:13;;;;;;;13.93;10.20;;;;;;;;;;5073261;28;20459;-72
2022/04/01 02:05:39;;;;;;;18.45;11.75;;;;;;;;;;5072884;28;20498;-72
2022/04/01 02:08:05;;;;;;;16.52;11.00;;;;;;;;;;5073168;28;20411;-74
2022/04/01 02:10:32;;;;;;;14.80;8.75;;;;;;;;;;5073008;28;20399;-72
2022/04/01 02:12:58;;;;;;;15.30;9.80;;;;;;;;;;5072857;28;20514;-71
2022/04/01 02:15:25;;;;;;;18.30;9.18;;;;;;;;;;5072966;28;20103;-72
2022/04/01 02:17:51;;;;;;;12.80;7.10;;;;;;;;;;5072985;28;20429;-73
2022/04/01 02:20:17;;;;;;;15.88;6.90;;;;;;;;;;5073002;28;20035;-72
2022/04/01 02:22:44;;;;;;;15.90;7.05;;;;;;;;;;5072673;28;20079;-73
2022/04/01 02:25:13;;;;;;;14.95;7.55;;;;;;;;;;5072722;28;20101;-73
2022/04/01 02:27:40;;;;;;;15.45;6.32;;;;;;;;;;5072860;28;20032;-72
2022/04/01 02:30:10;;;;;;;14.30;6.13;;;;;;;;;;5072646;28;20037;-73
2022/04/01 02:32:40;;;;;;;11.65;5.65;;;410.00;2355.20;;;;;;5072757;28;20073;-73
2022/04/01 02:35:08;;;;;;;11.02;4.88;;;410.10;2355.20;;;;;;5072699;28;20498;-72
2022/04/01 02:37:34;;;;;;;14.77;5.93;;;410.20;2355.20;;;;;;5072997;28;20141;-73
2022/04/01 02:40:01;;;;;;;12.23;7.47;;;410.00;2355.20;;;;;;5072457;28;20055;-72
2022/04/01 02:42:26;;;;;;;15.07;7.15;;;410.10;2355.20;;;;;;5072716;28;20025;-72
2022/04/01 02:44:52;;;;;;;11.20;5.70;;;410.20;2355.20;;;;;;5072592;28;20379;-72
2022/04/01 02:47:18;;;;;;;9.27;4.82;;;410.30;2355.20;;;;;;5072767;28;20107;-72
2022/04/01 02:49:44;;;;;;;10.43;5.55;;;410.10;2355.20;;;;;;5072587;28;20025;-73
2022/04/01 02:52:10;;;;;;;13.95;8.70;;;410.20;2355.20;;;;;;5072308;28;20090;-73
2022/04/01 02:54:35;;;;;;;12.48;6.60;;;410.20;2355.20;;;;;;5072577;28;20095;-73
2022/04/01 02:57:05;;;;;;;17.30;10.57;;;410.10;2355.20;;;;;;5072490;28;20028;-73
2022/04/01 02:59:30;;;;;;;12.77;8.35;;;410.10;2355.20;;;;;;5072670;28;20108;-73
2022/04/01 03:01:56;;;;;;;13.52;8.95;;;409.90;2355.20;;;;;;5072340;28;20112;-73
2022/04/01 03:04:22;;;;;;;12.10;7.28;;;;;;;;;;5072399;28;20391;-73
2022/04/01 03:06:49;;;;;;;19.20;11.35;;;;;;;;;;5072286;28;20103;-72
2022/04/01 03:09:15;;;;;;;16.85;8.18;;;;;;;;;;5075868;28;20072;-73
2022/04/01 03:11:42;;;;;;;13.00;7.82;;;;;;;;;;5075853;28;20037;-73
2022/04/01 03:14:09;;;;;;;15.52;9.50;;;;;;;;;;5076090;28;20032;-73
2022/04/01 03:16:37;;;;;;;14.95;7.63;;;;;;;;;;5075976;28;20089;-72
2022/04/01 03:19:04;;;;;;;14.95;7.05;;;;;;;;;;5075903;28;20020;-73
2022/04/01 03:21:30;;;;;;;18.75;8.32;;;;;;;;;;5075647;28;20115;-71
2022/04/01 03:23:56;;;;;;;18.42;7.00;;;410.30;2355.20;;;;;;5075818;28;20025;-73
2022/04/01 03:26:23;;;;;;;14.05;6.13;;;410.10;2355.20;;;;;;5075772;28;20052;-73
2022/04/01 03:28:49;;;;;;;12.90;7.10;;;;;;;;;;5075764;28;20421;-73
2022/04/01 03:31:16;;;;;;;15.43;6.78;;;;;;;;;;5075628;28;20036;-73
2022/04/01 03:33:42;;;;;;;23.17;12.45;;;;;;;;;;5075522;28;20391;-72
2022/04/01 03:36:11;;;;;;;20.48;7.95;;;;;;;;;;5075970;28;20115;-73
2022/04/01 03:38:39;;;;;;;13.57;7.15;;;;;;;;;;5075676;28;20069;-73
2022/04/01 03:41:06;;;;;;;16.17;7.05;;;;;;;;;;5075421;28;20020;-73
2022/04/01 03:43:34;;;;;;;10.38;6.38;;;;;;;;;;5075665;28;20451;-73
2022/04/01 03:46:04;;;;;;;13.02;7.07;;;;;;;;;;5075426;28;20467;-73
2022/04/01 03:48:35;;;;;;;13.20;6.70;;;;;;;;;;5075476;28;20048;-74
2022/04/01 03:51:01;;;;;;;11.60;5.85;;;;;;;;;;5075138;28;20039;-73
2022/04/01 03:53:28;;;;;;;14.68;6.55;;;;;;;;;;5075603;28;20364;-72
2022/04/01 03:55:56;;;;;;;14.77;6.35;;;410.00;2355.20;;;;;;5075232;28;20024;-73
2022/04/01 03:58:27;;;;;;;16.27;7.68;;;;;;;;;;5075314;28;20495;-73
2022/04/01 04:00:54;;;;;;;20.40;10.30;;;;;;;;;;5075239;28;20036;-73
2022/04/01 04:03:20;;;;;;;12.02;6.25;;;410.10;2355.20;;;;;;5075069;28;20024;-71
2022/04/01 04:05:47;;;;;;;9.40;4.38;;;;;;;;;;5074929;28;20028;-72
2022/04/01 04:08:17;;;;;;;8.93;4.30;;;;;;;;;;5075520;28;20024;-72
2022/04/01 04:10:46;;;;;;;10.68;5.13;;;;;;;;;;5074834;28;20081;-72
2022/04/01 04:13:12;;;;;;;12.73;5.70;;;;;;;;;;5075089;28;20356;-73
2022/04/01 04:15:43;;;;;;;14.20;7.97;;;;;;;;;;5074873;28;20154;-73
2022/04/01 04:18:12;;;;;;;16.52;8.48;;;;;;;;;;5074626;28;20032;-71
2022/04/01 04:20:50;;;;;;;14.02;7.82;;;;;;;;;;5074094;28;20826;-72
2022/04/01 04:23:31;;;;;;;16.92;7.75;;;;;;;;;;5074768;28;20027;-73
2022/04/01 04:26:01;;;;;;;15.85;7.68;;;;;;;;;;5074703;28;20414;-73
2022/04/01 04:28:37;;;;;;;34.63;20.50;;;410.20;2355.20;;;;;;5074725;28;20417;-73
2022/04/01 04:31:07;;;;;;;36.08;11.77;;;;;;;;;;5074915;28;20040;-73
2022/04/01 04:33:33;;;;;;;22.55;11.52;;;;;;;;;;5074583;28;20012;-73
2022/04/01 04:36:04;;;;;;;17.63;7.55;;;;;;;;;;5074310;28;20536;-71
2022/04/01 04:38:35;;;;;;;13.23;7.13;;;;;;;;;;5074482;28;20112;-72
2022/04/01 04:41:01;;;;;;;;;;;;;;;;;;5075048;28;20261;-73
2022/04/01 04:43:28;;;;;;;21.45;9.43;;;;;;;;;;5074237;28;19910;-72
2022/04/01 04:45:58;;;;;;;16.52;7.65;;;410.40;2355.20;;;;;;5074428;28;20028;-72
2022/04/01 04:48:26;;;;;;;26.13;10.30;;;410.50;2355.20;;;;;;5074399;28;20043;-73
2022/04/01 04:50:53;;;;;;;14.82;6.47;;;410.40;2355.20;;;;;;5074013;28;20570;-73
2022/04/01 04:53:20;;;;;;;16.23;6.45;;;;;;;;;;5074106;28;20111;-73
2022/04/01 04:55:48;;;;;;;7.05;4.07;;;410.50;2355.20;;;;;;5074106;28;20020;-73
2022/04/01 04:58:17;;;;;;;13.63;5.30;;;;;;;;;;5073951;28;20028;-73
2022/04/01 05:00:46;;;;;;;10.68;5.28;;;;;;;;;;5073981;28;20032;-73
2022/04/01 05:03:31;;;;;;;17.42;5.30;;;;;;;;;;5073925;28;20130;-73
2022/04/01 05:05:59;;;;;;;12.88;4.82;;;;;;;;;;5074328;28;20395;-73
2022/04/01 05:08:37;;;;;;;15.40;6.35;;;;;;;;;;5074307;28;20512;-73
2022/04/01 05:11:11;;;;;;;11.38;6.50;;;;;;;;;;5073728;28;20040;-73
2022/04/01 05:13:55;;;;;;;13.85;8.43;;;;;;;;;;5073740;28;20023;-73
2022/04/01 05:16:57;;;;;;;13.40;8.07;;;435.40;2355.20;;;;;;5073729;28;20021;-75
2022/04/01 05:19:31;;;;;;;12.45;8.98;;;435.40;2355.20;;;;;;5073481;28;20029;-74
2022/04/01 05:22:08;;;;;;;15.07;9.32;;;435.50;2355.20;;;;;;5073632;28;20443;-72
2022/04/01 05:24:44;;;;;;;27.90;14.27;;;435.50;2355.20;;;;;;5073497;28;20025;-72
2022/04/01 05:27:30;;;;;;;41.38;21.20;;;435.30;2355.20;;;;;;5072177;28;20044;-72
2022/04/01 05:30:12;;;;;;;44.65;25.73;;;435.30;2355.20;;;;;;5073225;28;20036;-73
2022/04/01 05:32:40;;;;;;;22.83;12.18;;;435.20;2355.20;;;;;;5073205;28;20032;-73
2022/04/01 05:35:06;;;;;;;29.77;17.05;;;;;;;;;;5073509;28;20498;-73
2022/04/01 05:37:34;;;;;;;20.48;12.60;;;435.30;2355.20;;;;;;5073622;28;20103;-73
2022/04/01 05:40:07;;;;;;;20.02;10.77;;;435.40;2355.20;;;;;;5073519;28;20097;-72
2022/04/01 05:42:33;;;;;;;22.92;12.27;;;435.60;2355.20;;;;;;5073269;28;20051;-73
2022/04/01 05:45:00;;;;;;;58.55;34.92;;;435.80;2355.20;;;;;;5072988;28;20027;-72
2022/04/01 05:47:30;;;;;;;161.68;92.57;;;435.70;2355.20;;;;;;5073128;28;20516;-73
2022/04/01 05:49:58;;;;;;;36.60;21.63;;;;;;;;;;5071635;28;20028;-73
2022/04/01 05:52:24;;;;;;;17.58;10.35;;;;;;;;;;5073100;28;20094;-73
2022/04/01 05:54:51;;;;;;;23.38;13.40;;;;;;;;;;5073090;28;20064;-73
2022/04/01 05:57:18;;;;;;;25.35;19.63;;;;;;;;;;5072920;28;20033;-73
2022/04/01 05:59:44;;;;;;;25.55;15.77;;;;;;;;;;5072933;28;20024;-73
2022/04/01 06:02:26;;;;;;;14.05;8.98;;;;;;;;;;5072915;28;20471;-72
2022/04/01 06:05:12;;;;;;;15.07;9.95;;;;;;;;;;5072650;28;20548;-73
2022/04/01 06:07:56;;;;;;;16.05;8.77;;;;;;;;;;5072930;28;20033;-72
2022/04/01 06:10:31;;;;;;;14.02;8.48;;;;;;;;;;5072830;28;20387;-74
2022/04/01 06:13:07;;;;;;;20.30;8.88;;;;;;;;;;5072808;28;20029;-72
2022/04/01 06:15:33;;;;;;;14.45;8.57;;;;;;;;;;5072815;28;20024;-73
2022/04/01 06:17:59;;;;;;;19.55;10.05;;;;;;;;;;5072496;28;20111;-73
2022/04/01 06:20:26;;;;;;;16.77;9.13;;;;;;;;;;5072864;28;20052;-73
2022/04/01 06:23:07;;;;;;;22.70;10.32;;;;;;;;;;5072736;28;20104;-72
2022/04/01 06:25:37;;;;;;;16.90;10.30;;;;;;;;;;5072795;28;20091;-72
2022/04/01 06:28:16;;;;;;;22.15;14.52;;;436.00;2355.20;;;;;;5072673;28;20107;-73
2022/04/01 06:30:47;;;;;;;23.45;10.68;;;435.90;2355.20;;;;;;5072565;28;20036;-72
2022/04/01 06:33:13;;;;;;;;;;;436.10;2355.20;;;;;;5073034;28;20021;-72
2022/04/01 06:35:54;;;;;;;29.27;11.38;;;436.10;2355.20;;;;;;5072673;28;19911;-72
2022/04/01 06:38:51;;;;;;;21.35;8.65;;;460.80;2380.80;;;;;;5072359;28;20047;-71
2022/04/01 06:41:19;;;;;;;24.48;10.48;;;460.80;2380.80;;;;;;4990788;28;20043;-72
2022/04/01 06:43:46;;;;;;;23.98;11.02;;;460.80;2380.80;;;;;;4994016;28;20509;-72
2022/04/01 06:46:12;;;;;;;25.35;10.65;;;;;;;;;;4995055;28;20083;-72
2022/04/01 06:48:40;;;;;;;16.67;7.32;;;;;;;;;;4978152;28;20114;-70
2022/04/01 06:51:08;;;;;;;18.70;7.53;;;461.40;2380.80;;;;;;4994897;28;20038;-72
2022/04/01 06:53:36;;;;;;;18.23;7.75;;;;;;;;;;4995039;28;20030;-71
2022/04/01 06:56:03;;;;;;;21.60;9.88;;;;;;;;;;4994703;28;20130;-71
2022/04/01 06:58:30;;;;;;;12.48;6.18;;;;;;;;;;4978375;28;20053;-72
2022/04/01 07:00:56;;;;;;;15.60;7.50;;;;;;;;;;4994842;28;20126;-69
2022/04/01 07:03:23;;;;;;;25.55;10.50;;;;;;;;;;4994586;28;20028;-71
2022/04/01 07:05:51;;;;;;;22.02;9.10;;;;;;;;;;4994722;28;20042;-72
2022/04/01 07:08:19;;;;;;;16.42;6.65;;;512.00;2355.20;;;;;;4994515;28;20030;-72
2022/04/01 07:10:46;;;;;;;22.50;5.97;;;;;;;;;;4994786;28;20496;-72
2022/04/01 07:13:12;;;;;;;16.83;7.38;;;512.40;2278.40;;;;;;4994623;28;20018;-72
2022/04/01 07:15:38;;;;;;;27.60;8.38;;;512.60;2252.80;;;;;;4994695;28;20045;-70
2022/04/01 07:18:06;;;;;;;13.63;6.10;;;;;;;;;;5033507;28;20044;-75
2022/04/01 07:20:32;;;;;;;21.38;8.48;;;;;;;;;;5074397;28;20094;-73
2022/04/01 07:22:58;;;;;;;10.43;5.95;;;;;;;;;;5075475;28;20025;-71
2022/04/01 07:25:24;;;;;;;21.15;7.32;;;;;;;;;;5075951;28;20341;-74
2022/04/01 07:27:51;;;;;;;23.20;8.88;;;;;;;;;;5075875;28;20382;-73
2022/04/01 07:30:17;;;;;;;18.30;7.45;;;;;;;;;;5075578;28;20012;-73
2022/04/01 07:32:44;;;;;;;31.85;9.93;;;;;;;;;;5074362;28;20032;-73
2022/04/01 07:35:14;;;;;;;23.80;7.32;;;;;;;;;;5075473;28;20025;-73
2022/04/01 07:37:42;;;;;;;22.85;7.20;;;;;;;;;;5075900;28;20078;-73
2022/04/01 07:40:09;;;;;;;16.13;7.65;;;;;;;;;;5075221;28;20480;-72
2022/04/01 07:42:35;;;;;;;17.85;9.48;;;;;;;;;;5075569;28;20025;-70
2022/04/01 07:45:02;;;;;;;14.05;7.55;;;;;;;;;;5075719;28;20075;-74
2022/04/01 07:47:28;;;;;;;10.82;3.65;;;;;;;;;;5075747;28;20471;-73
2022/04/01 07:49:54;;;;;;;10.68;4.45;;;;;;;;;;5075285;28;20021;-73
2022/04/01 07:52:21;;;;;;;11.05;3.92;;;;;;;;;;5075168;28;20032;-73
2022/04/01 07:54:48;;;;;;;15.43;4.43;;;;;;;;;;5074802;28;20466;-73
2022/04/01 07:57:15;;;;;;;9.23;4.65;;;;;;;;;;5075378;28;20102;-73
2022/04/01 07:59:41;;;;;;;11.15;4.88;;;;;;;;;;5073902;28;20135;-73
2022/04/01 08:02:07;;;;;;;12.00;4.95;;;;;;;;;;5074999;28;20487;-73
2022/04/01 08:04:34;;;;;;;15.68;4.82;;;;;;;;;;5074925;28;20024;-75
2022/04/01 08:07:00;;;;;;;14.95;5.97;;;;;;;;;;5075012;28;20405;-73
2022/04/01 08:09:26;;;;;;;13.15;5.38;;;;;;;;;;5074610;28;20033;-74
2022/04/01 08:11:53;;;;;;;10.60;5.90;;;;;;;;;;5074892;28;20054;-73
2022/04/01 08:14:19;;;;;;;7.70;4.60;;;;;;;;;;5074920;28;20476;-74
2022/04/01 08:16:45;;;;;;;11.65;4.82;;;;;;;;;;5074898;28;20035;-73
2022/04/01 08:19:12;;;;;;;8.90;4.70;;;;;;;;;;5075078;28;20101;-73
2022/04/01 08:21:38;;;;;;;8.43;4.45;;;;;;;;;;5074718;28;20027;-73
2022/04/01 08:24:04;;;;;;;9.95;5.18;;;;;;;;;;5074632;28;20020;-73
2022/04/01 08:26:30;;;;;;;17.33;9.55;;;;;;;;;;5074606;28;20101;-74
2022/04/01 08:28:56;;;;;;;16.02;8.63;;;;;;;;;;5074643;28;20024;-73
2022/04/01 08:31:22;;;;;;;22.65;12.77;;;;;;;;;;5074399;28;20436;-73
2022/04/01 08:33:50;;;;;;;27.05;14.38;;;;;;;;;;5074829;28;20025;-74
2022/04/01 08:36:17;;;;;;;24.23;13.48;;;;;;;;;;5074422;28;20016;-71
2022/04/01 08:38:43;;;;;;;25.30;16.52;;;;;;;;;;5074175;28;20052;-73
2022/04/01 08:41:09;;;;;;;37.55;23.02;;;;;;;;;;5074563;28;20020;-73
2022/04/01 08:43:39;;;;;;;39.65;29.55;;;512.80;2355.20;;;;;;5074148;28;20530;-73
2022/04/01 08:46:07;;;;;;;52.58;34.13;;;512.80;2355.20;;;;;;5074120;28;20024;-74
2022/04/01 08:48:34;;;;;;;19.33;12.38;;;537.80;2329.60;;;;;;5074119;28;20503;-73
2022/04/01 08:51:00;;;;;;;16.67;11.00;;;;;;;;;;5074003;28;20098;-74
2022/04/01 08:53:26;;;;;;;17.13;11.60;;;;;;;;;;5074077;28;20103;-74
2022/04/01 08:55:53;;;;;;;9.18;5.10;;;;;;;;;;5074056;28;20356;-73
2022/04/01 08:58:20;;;;;;;11.23;7.07;;;;;;;;;;5074086;28;20063;-75
2022/04/01 09:00:47;;;;;;;9.30;7.10;;;;;;;;;;5073857;28;20486;-74
2022/04/01 09:03:14;;;;;;;12.43;8.60;;;;;;;;;;5074004;28;20119;-75
2022/04/01 09:05:47;;;;;;;8.77;4.40;;;;;;;;;;5073173;28;20028;-75
2022/04/01 09:08:15;;;;;;;15.07;9.82;;;;;;;;;;5074028;28;20064;-73
2022/04/01 09:10:52;;;;;;;6.45;3.80;;;;;;;;;;5073709;28;20123;-74
2022/04/01 09:13:19;;;;;;;12.63;6.78;;;;;;;;;;5073623;28;20081;-75
2022/04/01 09:15:45;;;;;;;10.20;6.18;;;;;;;;;;5073617;28;20061;-74
2022/04/01 09:18:11;;;;;;;11.75;7.20;;;614.50;1459.20;;;;;;5073621;28;20025;-73
2022/04/01 09:20:44;;;;;;;5.00;3.55;;;;;;;;;;5074122;28;20028;-73
2022/04/01 09:23:10;;;;;;;10.27;3.35;;;;;;;;;;5073640;28;20021;-73
2022/04/01 09:25:36;;;;;;;6.70;3.28;;;614.80;1382.40;;;;;;5073675;28;20394;-73
2022/04/01 09:28:02;;;;;;;8.25;3.80;;;;;;;;;;5073719;28;20107;-73
2022/04/01 09:30:30;;;;;;;10.32;4.05;;;;;;;;;;5073466;28;20049;-74
2022/04/01 09:32:58;;;;;;;10.82;4.85;;;589.70;1356.80;;;;;;5073335;28;20020;-73
2022/04/01 09:35:26;;;;;;;7.50;3.15;;;589.50;1382.40;;;;;;5073120;28;20078;-73
2022/04/01 09:38:07;;;;;;;14.02;4.28;;;589.60;1356.80;;;;;;5073727;28;20471;-69
2022/04/01 09:40:35;;;;;;;27.08;10.85;;;589.70;1356.80;;;;;;5073191;28;20115;-70
2022/04/01 09:43:01;;;;;;;17.00;8.60;;;589.70;1331.20;;;;;;5073384;28;20021;-70
2022/04/01 09:45:32;;;;;;;28.98;14.45;;;589.70;1305.60;;;;;;5073223;28;20016;-72
2022/04/01 09:48:16;;;;;;;6.95;4.15;;;589.70;1305.60;;;;;;5072866;28;20036;-73
2022/04/01 09:50:44;;;;;;;7.32;4.50;;;589.60;1305.60;;;;;;5072767;28;20029;-68
2022/04/01 09:53:16;;;;;;;7.15;4.60;;;589.70;1305.60;;;;;;5072814;28;20474;-71
2022/04/01 09:55:49;;;;;;;5.32;3.35;;;589.70;1305.60;;;;;;5072923;28;20052;-72
2022/04/01 09:58:16;;;;;;;23.15;11.23;;;;;;;;;;5073418;28;20122;-72
2022/04/01 10:00:45;;;;;;;19.45;10.68;;;;;;;;;;5072819;28;20390;-72
2022/04/01 10:03:13;;;;;;;7.47;4.57;;;640.00;1177.60;;;;;;5073081;28;20032;-72
2022/04/01 10:05:40;;;;;;;8.68;5.22;;;640.10;1228.80;;;;;;5072750;28;20032;-72
2022/04/01 10:08:07;;;;;;;5.88;2.70;;;;;;;;;;5072797;28;20028;-72
2022/04/01 10:10:34;;;;;;;16.65;10.30;;;;;;;;;;5072789;28;20029;-72
2022/04/01 10:13:08;;;;;;;6.53;2.67;;;;;;;;;;5072833;28;20107;-73
2022/04/01 10:15:35;;;;;;;9.07;3.33;;;;;;;;;;5072929;28;20039;-73
2022/04/01 10:18:02;;;;;;;9.45;2.92;;;;;;;;;;5071367;28;20463;-73
2022/04/01 10:20:38;;;;;;;4.13;2.22;;;665.90;1126.40;;;;;;5072563;28;20020;-73
2022/04/01 10:23:09;;;;;;;7.78;3.50;;;665.80;1126.40;;;;;;5073132;28;20024;-73
2022/04/01 10:25:42;;;;;;;7.82;4.45;;;;;;;;;;5071461;28;20388;-74
2022/04/01 10:28:09;;;;;;;8.10;3.22;;;;;;;;;;5072505;28;20033;-72
2022/04/01 10:30:35;;;;;;;4.70;3.05;;;;;;;;;;5072501;28;20024;-73
2022/04/01 10:33:06;;;;;;;7.90;3.47;;;;;;;;;;5072563;28;20063;-70
2022/04/01 10:35:32;;;;;;;4.70;2.55;;;;;;;;;;5072473;28;20048;-74
2022/04/01 10:38:07;;;;;;;11.05;5.80;;;;;;;;;;5072434;28;20090;-74
2022/04/01 10:40:38;;;;;;;12.68;6.53;;;;;;;;;;5072385;28;20036;-73
2022/04/01 10:43:22;;;;;;;13.48;4.15;;;691.80;1024.00;;;;;;5072449;28;20376;-73
2022/04/01 10:46:00;;;;;;;11.35;5.60;;;;;;;;;;5072516;28;20088;-73
2022/04/01 10:51:37;;;;;;;2.65;1.92;;;;;;;;;;5072625;28;20063;-74
2022/04/01 10:54:06;;;;;;;6.07;2.22;;;;;;;;;;5072656;28;20082;-74
2022/04/01 10:56:34;;;;;;;7.72;3.83;;;;;;;;;;5072575;28;20020;-74
2022/04/01 10:59:19;;;;;;;7.32;4.05;;;794.00;896.00;;;;;;5072278;28;20479;-73
2022/04/01 11:01:53;;;;;;;8.40;4.75;;;793.60;947.20;;;;;;5070772;28;20098;-74
2022/04/01 11:04:19;;;;;;;11.85;7.40;;;;;;;;;;5072263;28;20031;-73
2022/04/01 11:07:04;;;;;;;14.85;9.70;;;;;;;;;;5072343;28;20071;-74
2022/04/01 11:09:36;;;;;;;6.38;3.05;;;;;;;;;;5072244;28;20075;-73
2022/04/01 11:12:21;;;;;;;3.20;1.65;;;666.20;1024.00;;;;;;5072078;28;20083;-73
2022/04/01 11:15:02;;;;;;;11.18;4.53;;;;;;;;;;5072167;28;20040;-73
2022/04/01 11:17:42;;;;;;;7.45;3.47;;;;;;;;;;5072625;28;20062;-73
2022/04/01 11:20:12;;;;;;;9.80;5.10;;;;;;;;;;5072022;28;20033;-71
2022/04/01 11:22:47;;;;;;;19.60;11.80;;;;;;;;;;5071991;28;20459;-71
2022/04/01 11:25:27;;;;;;;15.73;7.00;;;;;;;;;;5071945;28;20028;-71
2022/04/01 11:28:02;;;;;;;6.45;3.72;;;;;;;;;;5071993;28;20025;-73
2022/04/01 11:30:30;;;;;;;6.55;4.13;;;615.10;1075.20;;;;;;5075491;28;20107;-74
2022/04/01 11:33:08;;;;;;;2.65;1.90;;;;;;;;;;5075525;28;20391;-71
2022/04/01 11:35:39;;;;;;;15.07;4.43;;;615.00;1126.40;;;;;;5075453;28;20474;-72
2022/04/01 11:38:06;;;;;;;21.50;11.45;;;;;;;;;;5075770;28;20222;-72
2022/04/01 11:40:33;;;;;;;39.33;18.20;;;;;;;;;;5075181;28;20154;-73
2022/04/01 11:43:02;;;;;;;11.52;4.55;;;;;;;;;;5075396;28;20402;-73
2022/04/01 11:45:33;;;;;;;16.95;4.50;;;;;;;;;;5075301;28;20502;-72
2022/04/01 11:48:00;;;;;;;17.70;5.13;;;589.70;1254.40;;;;;;5075399;28;20087;-73
2022/04/01 11:50:26;;;;;;;22.75;5.18;;;589.60;1280.00;;;;;;5075086;28;20593;-72
2022/04/01 11:52:55;;;;;;;15.10;6.18;;;614.40;1280.00;;;;;;5075225;28;20029;-73
2022/04/01 11:55:27;;;;;;;16.10;6.03;;;614.40;1280.00;;;;;;5075139;28;20394;-73
2022/04/01 11:57:54;;;;;;;13.88;4.93;;;;;;;;;;5075170;28;20020;-73
2022/04/01 12:00:22;;;;;;;20.48;7.00;;;;;;;;;;5074960;28;20378;-73
2022/04/01 12:02:51;;;;;;;25.52;9.32;;;;;;;;;;5075071;28;20021;-73
2022/04/01 12:05:17;;;;;;;19.05;6.80;;;;;;;;;;5074929;28;20028;-73
2022/04/01 12:10:36;;;;;;;16.75;5.53;;;691.30;1126.40;;;;;;5075233;28;20119;-73
2022/04/01 12:13:03;;;;;;;21.88;5.25;;;;;;;;;;5074633;28;20107;-73
2022/04/01 12:15:40;;;;;;;17.73;5.43;;;;;;;;;;5073629;28;20115;-73
2022/04/01 12:18:08;;;;;;;31.98;6.28;;;;;;;;;;5074789;28;20028;-73
2022/04/01 12:21:00;;;;;;;40.10;14.38;;;;;;;;;;5074616;28;20021;-73
2022/04/01 12:23:33;;;;;;;18.45;6.10;;;;;;;;;;5070987;28;20037;-73
2022/04/01 12:26:00;;;;;;;20.38;6.22;;;;;;;;;;5074434;28;20501;-73
2022/04/01 12:28:27;;;;;;;23.67;5.68;;;;;;;;;;5074592;28;20103;-74
2022/04/01 12:30:55;;;;;;;14.63;3.67;;;;;;;;;;5074684;28;20028;-73
2022/04/01 12:33:28;;;;;;;18.55;7.20;;;;;;;;;;5074466;28;20059;-72
2022/04/01 12:36:01;;;;;;;19.85;5.03;;;;;;;;;;5074839;28;20047;-73
2022/04/01 12:38:30;;;;;;;12.52;4.93;;;564.10;1382.40;;;;;;5074306;28;20039;-73
2022/04/01 12:40:57;;;;;;;10.90;4.10;;;;;;;;;;5073366;28;20043;-73
2022/04/01 12:43:31;;;;;;;10.45;3.40;;;;;;;;;;5074276;28;20025;-73
2022/04/01 12:45:58;;;;;;;21.75;5.70;;;;;;;;;;5074153;28;20025;-73
2022/04/01 12:48:25;;;;;;;21.23;6.30;;;;;;;;;;5074077;28;20024;-73
2022/04/01 12:50:52;;;;;;;15.15;4.13;;;;;;;;;;5073892;28;20032;-74
2022/04/01 12:53:18;;;;;;;11.20;4.22;;;;;;;;;;5074070;28;20517;-72
2022/04/01 12:55:44;;;;;;;17.17;6.50;;;;;;;;;;5074122;28;20028;-74
2022/04/01 12:58:14;;;;;;;10.55;3.78;;;;;;;;;;5073605;28;20060;-72
2022/04/01 13:00:40;;;;;;;18.25;5.35;;;;;;;;;;5073967;28;20027;-69
2022/04/01 13:03:08;;;;;;;12.63;5.18;;;;;;;;;;5073977;28;20502;-72
2022/04/01 13:05:34;;;;;;;17.73;4.65;;;;;;;;;;5073423;28;20025;-72
2022/04/01 13:08:01;;;;;;;20.52;8.32;;;;;;;;;;5073970;28;20082;-73
2022/04/01 13:10:27;;;;;;;16.92;6.07;;;;;;;;;;5073553;28;20387;-71
2022/04/01 13:12:55;;;;;;;18.42;8.43;;;;;;;;;;5073635;28;20051;-75
2022/04/01 13:15:27;;;;;;;21.08;7.70;;;;;;;;;;5073560;28;20017;-73
2022/04/01 13:17:54;;;;;;;13.60;7.00;;;;;;;;;;5073658;28;20027;-73
2022/04/01 13:20:21;;;;;;;22.98;9.13;;;;;;;;;;5073295;28;20024;-73
2022/04/01 13:22:47;;;;;;;9.15;4.07;;;;;;;;;;5073579;28;20103;-73
2022/04/01 13:25:14;;;;;;;17.13;5.53;;;;;;;;;;5073308;28;20028;-69
2022/04/01 13:27:40;;;;;;;18.20;5.15;;;;;;;;;;5073563;28;20479;-73
2022/04/01 13:30:07;;;;;;;15.13;5.00;;;;;;;;;;5073477;28;20502;-73
2022/04/01 13:32:34;;;;;;;12.80;5.03;;;;;;;;;;5073298;28;20033;-72
2022/04/01 13:35:00;;;;;;;16.83;4.93;;;;;;;;;;5073177;28;20021;-72
2022/04/01 13:37:26;;;;;;;14.77;4.95;;;;;;;;;;5073535;28;20054;-72
2022/04/01 13:39:53;;;;;;;13.13;4.68;;;;;;;;;;5073120;28;20028;-72
2022/04/01 13:42:20;;;;;;;11.48;6.60;;;;;;;;;;5073215;28;20020;-72
2022/04/01 13:44:47;;;;;;;12.18;6.03;;;;;;;;;;5073204;28;20448;-72
2022/04/01 13:47:13;;;;;;;18.33;7.03;;;;;;;;;;5072908;28;20082;-73
2022/04/01 13:49:39;;;;;;;13.40;6.40;;;;;;;;;;5073525;28;20028;-73
2022/04/01 13:52:08;;;;;;;9.95;3.95;;;;;;;;;;5072479;28;20028;-74
2022/04/01 13:54:34;;;;;;;9.70;4.20;;;;;;;;;;5072927;28;20020;-74
2022/04/01 13:57:00;;;;;;;22.33;5.35;;;589.30;1254.40;;;;;;5072864;28;20025;-74
2022/04/01 13:59:27;;;;;;;14.02;5.60;;;589.30;1254.40;;;;;;5072687;28;20025;-74
2022/04/01 14:01:53;;;;;;;9.32;4.38;;;;;;;;;;5071784;28;20025;-75